sensor_id;sensor_type;location;lat;lon;timestamp;P1;durP1;ratioP1;P2;durP2;ratioP2
37787;SDS011;23627;53.302;-6.362;2023-10-08T00:01:53;11.20;;;5.35;;
37787;SDS011;23627;53.302;-6.362;2023-10-08T00:04:20;10.15;;;5.38;;
37787;SDS011;23627;53.302;-6.362;2023-10-08T00:06:46;11.18;;;5.43;;
37787;SDS011;23627;53.302;-6.362;2023-10-08T00:09:12;10.55;;;5.38;;
37787;SDS011;23627;53.302;-6.362;2023-10-08T00:11:40;13.68;;;5.60;;
37787;SDS011;23627;53.302;-6.362;2023-10-08T00:14:06;15.20;;;6.07;;
37787;SDS011;23627;53.302;-6.362;2023-10-08T00:16:36;10.70;;;5.90;;
37787;SDS011;23627;53.302;-6.362;2023-10-08T00:19:07;10.68;;;5.60;;
37787;SDS011;23627;53.302;-6.362;2023-10-08T00:21:34;13.02;;;6.13;;
37787;SDS011;23627;53.302;-6.362;2023-10-08T00:24:02;15.32;;;6.53;;
37787;SDS011;23627;53.302;-6.362;2023-10-08T00:26:31;12.13;;;6.28;;
37787;SDS011;23627;53.302;-6.362;2023-10-08T00:29:03;13.13;;;6.07;;
37787;SDS011;23627;53.302;-6.362;2023-10-08T00:31:41;12.60;;;5.97;;
37787;SDS011;23627;53.302;-6.362;2023-10-08T00:34:10;10.80;;;6.07;;
37787;SDS011;23627;53.302;-6.362;2023-10-08T00:36:42;12.82;;;5.97;;
37787;SDS011;23627;53.302;-6.362;2023-10-08T00:39:11;16.05;;;6.32;;
37787;SDS011;23627;53.302;-6.362;2023-10-08T00:41:48;10.95;;;5.70;;
37787;SDS011;23627;53.302;-6.362;2023-10-08T00:44:15;12.27;;;5.90;;
37787;SDS011;23627;53.302;-6.362;2023-10-08T00:46:47;14.13;;;6.40;;
37787;SDS011;23627;53.302;-6.362;2023-10-08T00:49:17;13.68;;;6.47;;
37787;SDS011;23627;53.302;-6.362;2023-10-08T00:51:47;12.32;;;6.38;;
37787;SDS011;23627;53.302;-6.362;2023-10-08T00:54:26;12.02;;;6.40;;
37787;SDS011;23627;53.302;-6.362;2023-10-08T00:56:53;13.43;;;6.13;;
37787;SDS011;23627;53.302;-6.362;2023-10-08T00:59:23;12.88;;;6.05;;
37787;SDS011;23627;53.302;-6.362;2023-10-08T01:01:50;13.85;;;6.13;;
37787;SDS011;23627;53.302;-6.362;2023-10-08T01:04:17;12.02;;;5.97;;
37787;SDS011;23627;53.302;-6.362;2023-10-08T01:06:48;15.63;;;6.18;;
37787;SDS011;23627;53.302;-6.362;2023-10-08T01:09:21;15.70;;;6.55;;
37787;SDS011;23627;53.302;-6.362;2023-10-08T01:14:46;13.88;;;5.68;;
37787;SDS011;23627;53.302;-6.362;2023-10-08T01:17:13;14.55;;;6.50;;
37787;SDS011;23627;53.302;-6.362;2023-10-08T01:19:41;13.48;;;5.85;;
37787;SDS011;23627;53.302;-6.362;2023-10-08T01:22:13;14.93;;;6.55;;
37787;SDS011;23627;53.302;-6.362;2023-10-08T01:24:47;13.95;;;6.60;;
37787;SDS011;23627;53.302;-6.362;2023-10-08T01:27:17;13.70;;;6.05;;
37787;SDS011;23627;53.302;-6.362;2023-10-08T01:29:49;12.43;;;5.93;;
37787;SDS011;23627;53.302;-6.362;2023-10-08T01:32:20;12.43;;;6.05;;
37787;SDS011;23627;53.302;-6.362;2023-10-08T01:34:47;15.20;;;6.63;;
37787;SDS011;23627;53.302;-6.362;2023-10-08T01:37:14;11.52;;;5.93;;
37787;SDS011;23627;53.302;-6.362;2023-10-08T01:39:46;12.40;;;6.07;;
37787;SDS011;23627;53.302;-6.362;2023-10-08T01:42:15;16.00;;;6.32;;
37787;SDS011;23627;53.302;-6.362;2023-10-08T01:44:46;12.55;;;5.88;;
37787;SDS011;23627;53.302;-6.362;2023-10-08T01:47:14;12.30;;;5.95;;
37787;SDS011;23627;53.302;-6.362;2023-10-08T01:49:41;12.85;;;6.50;;
37787;SDS011;23627;53.302;-6.362;2023-10-08T01:52:11;13.48;;;6.43;;
37787;SDS011;23627;53.302;-6.362;2023-10-08T01:54:46;14.00;;;6.15;;
37787;SDS011;23627;53.302;-6.362;2023-10-08T01:57:13;11.68;;;5.85;;
37787;SDS011;23627;53.302;-6.362;2023-10-08T01:59:40;12.70;;;5.72;;
37787;SDS011;23627;53.302;-6.362;2023-10-08T02:02:06;12.10;;;6.32;;
37787;SDS011;23627;53.302;-6.362;2023-10-08T02:04:35;11.82;;;5.97;;
37787;SDS011;23627;53.302;-6.362;2023-10-08T02:07:04;11.88;;;5.72;;
37787;SDS011;23627;53.302;-6.362;2023-10-08T02:09:33;11.68;;;5.88;;
37787;SDS011;23627;53.302;-6.362;2023-10-08T02:11:59;15.30;;;6.18;;
37787;SDS011;23627;53.302;-6.362;2023-10-08T02:14:25;13.60;;;5.68;;
37787;SDS011;23627;53.302;-6.362;2023-10-08T02:16:55;9.60;;;5.40;;
37787;SDS011;23627;53.302;-6.362;2023-10-08T02:19:21;10.93;;;5.40;;
37787;SDS011;23627;53.302;-6.362;2023-10-08T02:21:56;10.00;;;5.40;;
37787;SDS011;23627;53.302;-6.362;2023-10-08T02:24:23;12.50;;;5.63;;
37787;SDS011;23627;53.302;-6.362;2023-10-08T02:26:50;13.23;;;6.00;;
37787;SDS011;23627;53.302;-6.362;2023-10-08T02:29:24;10.10;;;5.35;;
37787;SDS011;23627;53.302;-6.362;2023-10-08T02:31:52;12.25;;;5.38;;
37787;SDS011;23627;53.302;-6.362;2023-10-08T02:34:19;10.75;;;5.82;;
37787;SDS011;23627;53.302;-6.362;2023-10-08T02:36:45;12.35;;;5.95;;
37787;SDS011;23627;53.302;-6.362;2023-10-08T02:39:12;9.15;;;5.75;;
37787;SDS011;23627;53.302;-6.362;2023-10-08T02:41:40;12.38;;;6.57;;
37787;SDS011;23627;53.302;-6.362;2023-10-08T02:44:11;11.40;;;5.63;;
37787;SDS011;23627;53.302;-6.362;2023-10-08T02:46:42;11.88;;;6.10;;
37787;SDS011;23627;53.302;-6.362;2023-10-08T02:49:19;12.15;;;5.82;;
37787;SDS011;23627;53.302;-6.362;2023-10-08T02:51:46;14.18;;;5.95;;
37787;SDS011;23627;53.302;-6.362;2023-10-08T02:54:15;14.82;;;6.20;;
37787;SDS011;23627;53.302;-6.362;2023-10-08T02:56:43;12.65;;;5.70;;
37787;SDS011;23627;53.302;-6.362;2023-10-08T02:59:11;13.02;;;5.97;;
37787;SDS011;23627;53.302;-6.362;2023-10-08T03:01:37;15.25;;;6.90;;
37787;SDS011;23627;53.302;-6.362;2023-10-08T03:04:07;13.63;;;5.97;;
37787;SDS011;23627;53.302;-6.362;2023-10-08T03:06:47;13.90;;;5.78;;
37787;SDS011;23627;53.302;-6.362;2023-10-08T03:09:20;11.30;;;5.88;;
37787;SDS011;23627;53.302;-6.362;2023-10-08T03:11:51;12.13;;;6.10;;
37787;SDS011;23627;53.302;-6.362;2023-10-08T03:14:18;15.80;;;6.25;;
37787;SDS011;23627;53.302;-6.362;2023-10-08T03:16:50;15.63;;;6.40;;
37787;SDS011;23627;53.302;-6.362;2023-10-08T03:19:18;14.68;;;5.90;;
37787;SDS011;23627;53.302;-6.362;2023-10-08T03:21:48;13.88;;;6.10;;
37787;SDS011;23627;53.302;-6.362;2023-10-08T03:24:20;14.13;;;5.63;;
37787;SDS011;23627;53.302;-6.362;2023-10-08T03:26:59;10.18;;;5.25;;
37787;SDS011;23627;53.302;-6.362;2023-10-08T03:29:32;14.43;;;5.72;;
37787;SDS011;23627;53.302;-6.362;2023-10-08T03:32:05;15.68;;;5.38;;
37787;SDS011;23627;53.302;-6.362;2023-10-08T03:34:31;13.10;;;5.93;;
37787;SDS011;23627;53.302;-6.362;2023-10-08T03:36:59;10.63;;;5.65;;
37787;SDS011;23627;53.302;-6.362;2023-10-08T03:39:31;12.98;;;6.05;;
37787;SDS011;23627;53.302;-6.362;2023-10-08T03:42:21;11.43;;;5.45;;
37787;SDS011;23627;53.302;-6.362;2023-10-08T03:44:48;13.35;;;5.45;;
37787;SDS011;23627;53.302;-6.362;2023-10-08T03:47:21;15.05;;;5.57;;
37787;SDS011;23627;53.302;-6.362;2023-10-08T03:49:51;13.88;;;5.57;;
37787;SDS011;23627;53.302;-6.362;2023-10-08T03:52:18;16.45;;;5.93;;
37787;SDS011;23627;53.302;-6.362;2023-10-08T03:54:49;10.88;;;4.75;;
37787;SDS011;23627;53.302;-6.362;2023-10-08T03:57:29;15.52;;;5.35;;
37787;SDS011;23627;53.302;-6.362;2023-10-08T04:00:07;10.00;;;5.35;;
37787;SDS011;23627;53.302;-6.362;2023-10-08T04:02:43;9.18;;;4.95;;
37787;SDS011;23627;53.302;-6.362;2023-10-08T04:05:19;11.38;;;5.38;;
37787;SDS011;23627;53.302;-6.362;2023-10-08T04:07:48;9.48;;;5.00;;
37787;SDS011;23627;53.302;-6.362;2023-10-08T04:10:23;11.57;;;4.85;;
37787;SDS011;23627;53.302;-6.362;2023-10-08T04:13:09;10.00;;;4.88;;
37787;SDS011;23627;53.302;-6.362;2023-10-08T04:15:38;11.35;;;5.20;;
37787;SDS011;23627;53.302;-6.362;2023-10-08T04:18:10;12.45;;;4.80;;
37787;SDS011;23627;53.302;-6.362;2023-10-08T04:20:38;11.95;;;5.13;;
37787;SDS011;23627;53.302;-6.362;2023-10-08T04:23:07;12.27;;;4.40;;
37787;SDS011;23627;53.302;-6.362;2023-10-08T04:25:45;8.05;;;3.30;;
37787;SDS011;23627;53.302;-6.362;2023-10-08T04:28:16;6.07;;;3.30;;
37787;SDS011;23627;53.302;-6.362;2023-10-08T04:30:45;6.13;;;3.53;;
37787;SDS011;23627;53.302;-6.362;2023-10-08T04:33:16;7.78;;;4.30;;
37787;SDS011;23627;53.302;-6.362;2023-10-08T04:35:42;6.93;;;4.10;;
37787;SDS011;23627;53.302;-6.362;2023-10-08T04:38:22;9.13;;;4.50;;
37787;SDS011;23627;53.302;-6.362;2023-10-08T04:40:51;7.43;;;4.15;;
37787;SDS011;23627;53.302;-6.362;2023-10-08T04:43:21;7.60;;;4.13;;
37787;SDS011;23627;53.302;-6.362;2023-10-08T04:45:53;9.00;;;4.40;;
37787;SDS011;23627;53.302;-6.362;2023-10-08T04:48:23;9.15;;;4.00;;
37787;SDS011;23627;53.302;-6.362;2023-10-08T04:50:57;8.85;;;4.70;;
37787;SDS011;23627;53.302;-6.362;2023-10-08T04:53:27;9.65;;;4.88;;
37787;SDS011;23627;53.302;-6.362;2023-10-08T04:56:02;11.05;;;4.93;;
37787;SDS011;23627;53.302;-6.362;2023-10-08T04:58:38;10.32;;;4.55;;
37787;SDS011;23627;53.302;-6.362;2023-10-08T05:01:11;9.27;;;4.40;;
37787;SDS011;23627;53.302;-6.362;2023-10-08T05:03:47;9.33;;;4.70;;
37787;SDS011;23627;53.302;-6.362;2023-10-08T05:06:26;8.10;;;4.65;;
37787;SDS011;23627;53.302;-6.362;2023-10-08T05:09:05;10.80;;;5.28;;
37787;SDS011;23627;53.302;-6.362;2023-10-08T05:11:46;12.50;;;5.57;;
37787;SDS011;23627;53.302;-6.362;2023-10-08T05:14:20;10.13;;;4.97;;
37787;SDS011;23627;53.302;-6.362;2023-10-08T05:19:43;9.15;;;5.10;;
37787;SDS011;23627;53.302;-6.362;2023-10-08T05:22:41;9.82;;;5.40;;
37787;SDS011;23627;53.302;-6.362;2023-10-08T05:25:10;10.68;;;5.80;;
37787;SDS011;23627;53.302;-6.362;2023-10-08T05:27:37;9.95;;;5.13;;
37787;SDS011;23627;53.302;-6.362;2023-10-08T05:30:13;10.50;;;5.70;;
37787;SDS011;23627;53.302;-6.362;2023-10-08T05:32:57;15.05;;;6.40;;
37787;SDS011;23627;53.302;-6.362;2023-10-08T05:35:39;9.70;;;5.70;;
37787;SDS011;23627;53.302;-6.362;2023-10-08T05:38:13;14.88;;;6.97;;
37787;SDS011;23627;53.302;-6.362;2023-10-08T05:40:55;15.02;;;7.35;;
37787;SDS011;23627;53.302;-6.362;2023-10-08T05:43:58;15.40;;;7.13;;
37787;SDS011;23627;53.302;-6.362;2023-10-08T05:46:36;11.07;;;6.60;;
37787;SDS011;23627;53.302;-6.362;2023-10-08T05:49:11;13.65;;;7.28;;
37787;SDS011;23627;53.302;-6.362;2023-10-08T05:51:51;13.43;;;7.07;;
37787;SDS011;23627;53.302;-6.362;2023-10-08T05:54:21;10.63;;;6.68;;
37787;SDS011;23627;53.302;-6.362;2023-10-08T05:57:07;10.80;;;6.00;;
37787;SDS011;23627;53.302;-6.362;2023-10-08T06:02:37;10.18;;;5.43;;
37787;SDS011;23627;53.302;-6.362;2023-10-08T06:10:19;11.68;;;5.95;;
37787;SDS011;23627;53.302;-6.362;2023-10-08T06:13:12;11.30;;;6.50;;
37787;SDS011;23627;53.302;-6.362;2023-10-08T06:15:51;12.50;;;7.25;;
37787;SDS011;23627;53.302;-6.362;2023-10-08T06:18:32;10.27;;;6.72;;
37787;SDS011;23627;53.302;-6.362;2023-10-08T06:20:59;14.82;;;8.20;;
37787;SDS011;23627;53.302;-6.362;2023-10-08T06:23:26;12.77;;;7.45;;
37787;SDS011;23627;53.302;-6.362;2023-10-08T06:25:57;11.88;;;7.68;;
37787;SDS011;23627;53.302;-6.362;2023-10-08T06:28:36;12.07;;;7.22;;
37787;SDS011;23627;53.302;-6.362;2023-10-08T06:31:03;14.30;;;8.30;;
37787;SDS011;23627;53.302;-6.362;2023-10-08T06:33:37;13.98;;;7.60;;
37787;SDS011;23627;53.302;-6.362;2023-10-08T06:36:04;13.48;;;7.90;;
37787;SDS011;23627;53.302;-6.362;2023-10-08T06:38:36;11.80;;;7.63;;
37787;SDS011;23627;53.302;-6.362;2023-10-08T06:41:04;12.38;;;7.50;;
37787;SDS011;23627;53.302;-6.362;2023-10-08T06:43:35;12.17;;;7.33;;
37787;SDS011;23627;53.302;-6.362;2023-10-08T06:46:02;11.57;;;7.05;;
37787;SDS011;23627;53.302;-6.362;2023-10-08T06:48:32;14.02;;;7.30;;
37787;SDS011;23627;53.302;-6.362;2023-10-08T06:50:59;11.20;;;7.43;;
37787;SDS011;23627;53.302;-6.362;2023-10-08T06:53:45;11.45;;;7.13;;
37787;SDS011;23627;53.302;-6.362;2023-10-08T06:56:12;12.02;;;7.57;;
37787;SDS011;23627;53.302;-6.362;2023-10-08T06:58:42;11.95;;;7.13;;
37787;SDS011;23627;53.302;-6.362;2023-10-08T07:01:17;10.90;;;7.00;;
37787;SDS011;23627;53.302;-6.362;2023-10-08T07:04:03;13.60;;;7.45;;
37787;SDS011;23627;53.302;-6.362;2023-10-08T07:06:31;11.30;;;7.47;;
37787;SDS011;23627;53.302;-6.362;2023-10-08T07:08:59;11.07;;;6.97;;
37787;SDS011;23627;53.302;-6.362;2023-10-08T07:11:30;10.30;;;6.78;;
37787;SDS011;23627;53.302;-6.362;2023-10-08T07:14:03;12.13;;;7.00;;
37787;SDS011;23627;53.302;-6.362;2023-10-08T07:16:32;11.95;;;7.35;;
37787;SDS011;23627;53.302;-6.362;2023-10-08T07:18:59;13.32;;;6.88;;
37787;SDS011;23627;53.302;-6.362;2023-10-08T07:21:40;10.63;;;7.05;;
37787;SDS011;23627;53.302;-6.362;2023-10-08T07:24:15;12.20;;;6.38;;
37787;SDS011;23627;53.302;-6.362;2023-10-08T07:26:42;13.25;;;6.80;;
37787;SDS011;23627;53.302;-6.362;2023-10-08T07:29:12;10.77;;;6.40;;
37787;SDS011;23627;53.302;-6.362;2023-10-08T07:31:42;9.82;;;6.65;;
37787;SDS011;23627;53.302;-6.362;2023-10-08T07:34:13;13.10;;;6.90;;
37787;SDS011;23627;53.302;-6.362;2023-10-08T07:36:48;11.77;;;6.70;;
37787;SDS011;23627;53.302;-6.362;2023-10-08T07:39:16;10.45;;;6.45;;
37787;SDS011;23627;53.302;-6.362;2023-10-08T07:41:59;9.50;;;5.63;;
37787;SDS011;23627;53.302;-6.362;2023-10-08T07:44:27;10.40;;;5.80;;
37787;SDS011;23627;53.302;-6.362;2023-10-08T07:46:53;6.93;;;3.92;;
37787;SDS011;23627;53.302;-6.362;2023-10-08T07:49:19;9.73;;;4.78;;
37787;SDS011;23627;53.302;-6.362;2023-10-08T07:51:49;6.78;;;3.20;;
37787;SDS011;23627;53.302;-6.362;2023-10-08T07:54:18;5.20;;;3.35;;
37787;SDS011;23627;53.302;-6.362;2023-10-08T07:56:49;5.45;;;3.47;;
37787;SDS011;23627;53.302;-6.362;2023-10-08T07:59:24;6.10;;;4.05;;
37787;SDS011;23627;53.302;-6.362;2023-10-08T08:01:50;6.78;;;4.40;;
37787;SDS011;23627;53.302;-6.362;2023-10-08T08:04:19;7.40;;;3.85;;
37787;SDS011;23627;53.302;-6.362;2023-10-08T08:06:48;5.82;;;3.63;;
37787;SDS011;23627;53.302;-6.362;2023-10-08T08:09:16;6.95;;;4.10;;
37787;SDS011;23627;53.302;-6.362;2023-10-08T08:11:48;8.25;;;4.30;;
37787;SDS011;23627;53.302;-6.362;2023-10-08T08:14:14;5.50;;;2.92;;
37787;SDS011;23627;53.302;-6.362;2023-10-08T08:16:50;6.15;;;3.60;;
37787;SDS011;23627;53.302;-6.362;2023-10-08T08:19:16;6.65;;;3.50;;
37787;SDS011;23627;53.302;-6.362;2023-10-08T08:21:49;6.63;;;3.33;;
37787;SDS011;23627;53.302;-6.362;2023-10-08T08:24:17;5.45;;;2.90;;
37787;SDS011;23627;53.302;-6.362;2023-10-08T08:26:56;4.93;;;2.53;;
37787;SDS011;23627;53.302;-6.362;2023-10-08T08:32:13;4.57;;;2.80;;
37787;SDS011;23627;53.302;-6.362;2023-10-08T08:34:46;4.85;;;2.97;;
37787;SDS011;23627;53.302;-6.362;2023-10-08T08:37:16;5.40;;;2.88;;
37787;SDS011;23627;53.302;-6.362;2023-10-08T08:39:42;4.55;;;2.50;;
37787;SDS011;23627;53.302;-6.362;2023-10-08T08:42:08;4.28;;;2.35;;
37787;SDS011;23627;53.302;-6.362;2023-10-08T08:44:35;5.43;;;2.45;;
37787;SDS011;23627;53.302;-6.362;2023-10-08T08:47:14;4.47;;;2.00;;
37787;SDS011;23627;53.302;-6.362;2023-10-08T08:49:43;3.22;;;1.90;;
37787;SDS011;23627;53.302;-6.362;2023-10-08T08:52:13;4.35;;;2.05;;
37787;SDS011;23627;53.302;-6.362;2023-10-08T08:54:42;4.00;;;2.45;;
37787;SDS011;23627;53.302;-6.362;2023-10-08T08:57:09;4.60;;;2.13;;
37787;SDS011;23627;53.302;-6.362;2023-10-08T08:59:49;4.43;;;2.10;;
37787;SDS011;23627;53.302;-6.362;2023-10-08T09:02:19;3.42;;;2.20;;
37787;SDS011;23627;53.302;-6.362;2023-10-08T09:04:44;4.15;;;2.20;;
37787;SDS011;23627;53.302;-6.362;2023-10-08T09:07:12;4.55;;;2.15;;
37787;SDS011;23627;53.302;-6.362;2023-10-08T09:09:38;3.47;;;1.90;;
37787;SDS011;23627;53.302;-6.362;2023-10-08T09:12:06;4.13;;;2.08;;
37787;SDS011;23627;53.302;-6.362;2023-10-08T09:14:36;3.17;;;2.03;;
37787;SDS011;23627;53.302;-6.362;2023-10-08T09:17:03;4.13;;;2.35;;
37787;SDS011;23627;53.302;-6.362;2023-10-08T09:19:30;5.43;;;2.00;;
37787;SDS011;23627;53.302;-6.362;2023-10-08T09:22:02;3.22;;;2.00;;
37787;SDS011;23627;53.302;-6.362;2023-10-08T09:24:31;3.65;;;1.90;;
37787;SDS011;23627;53.302;-6.362;2023-10-08T09:26:59;5.45;;;2.13;;
37787;SDS011;23627;53.302;-6.362;2023-10-08T09:29:27;3.28;;;1.60;;
37787;SDS011;23627;53.302;-6.362;2023-10-08T09:31:53;5.00;;;2.00;;
37787;SDS011;23627;53.302;-6.362;2023-10-08T09:34:30;4.70;;;1.98;;
37787;SDS011;23627;53.302;-6.362;2023-10-08T09:36:56;4.28;;;1.90;;
37787;SDS011;23627;53.302;-6.362;2023-10-08T09:39:28;3.70;;;2.03;;
37787;SDS011;23627;53.302;-6.362;2023-10-08T09:41:59;4.13;;;2.05;;
37787;SDS011;23627;53.302;-6.362;2023-10-08T09:44:29;3.47;;;1.85;;
37787;SDS011;23627;53.302;-6.362;2023-10-08T09:49:41;3.58;;;1.95;;
37787;SDS011;23627;53.302;-6.362;2023-10-08T09:52:24;4.13;;;1.90;;
37787;SDS011;23627;53.302;-6.362;2023-10-08T09:55:08;4.10;;;1.80;;
37787;SDS011;23627;53.302;-6.362;2023-10-08T10:13:51;6.03;;;2.22;;
37787;SDS011;23627;53.302;-6.362;2023-10-08T10:16:37;5.40;;;2.08;;
37787;SDS011;23627;53.302;-6.362;2023-10-08T11:05:57;7.30;;;2.88;;
37787;SDS011;23627;53.302;-6.362;2023-10-08T11:08:25;4.10;;;2.40;;
37787;SDS011;23627;53.302;-6.362;2023-10-08T11:10:59;4.53;;;2.70;;
37787;SDS011;23627;53.302;-6.362;2023-10-08T11:13:30;5.50;;;2.63;;
37787;SDS011;23627;53.302;-6.362;2023-10-08T11:16:03;4.18;;;2.65;;
37787;SDS011;23627;53.302;-6.362;2023-10-08T11:18:30;4.95;;;2.85;;
37787;SDS011;23627;53.302;-6.362;2023-10-08T11:21:08;3.88;;;2.65;;
37787;SDS011;23627;53.302;-6.362;2023-10-08T11:23:42;7.03;;;3.58;;
37787;SDS011;23627;53.302;-6.362;2023-10-08T11:26:11;7.57;;;3.45;;
37787;SDS011;23627;53.302;-6.362;2023-10-08T11:28:40;5.47;;;3.35;;
37787;SDS011;23627;53.302;-6.362;2023-10-08T11:31:07;5.28;;;3.00;;
37787;SDS011;23627;53.302;-6.362;2023-10-08T11:33:36;7.60;;;3.50;;
37787;SDS011;23627;53.302;-6.362;2023-10-08T11:36:04;5.45;;;3.10;;
37787;SDS011;23627;53.302;-6.362;2023-10-08T11:38:43;5.47;;;2.90;;
37787;SDS011;23627;53.302;-6.362;2023-10-08T11:41:17;6.82;;;3.30;;
37787;SDS011;23627;53.302;-6.362;2023-10-08T11:43:52;5.10;;;3.10;;
37787;SDS011;23627;53.302;-6.362;2023-10-08T11:46:30;5.15;;;2.80;;
37787;SDS011;23627;53.302;-6.362;2023-10-08T11:49:06;5.85;;;3.10;;
37787;SDS011;23627;53.302;-6.362;2023-10-08T11:51:33;6.43;;;2.78;;
37787;SDS011;23627;53.302;-6.362;2023-10-08T11:54:05;6.45;;;3.15;;
37787;SDS011;23627;53.302;-6.362;2023-10-08T11:56:31;5.55;;;3.33;;
37787;SDS011;23627;53.302;-6.362;2023-10-08T11:59:01;3.50;;;2.60;;
37787;SDS011;23627;53.302;-6.362;2023-10-08T12:01:33;4.57;;;2.80;;
37787;SDS011;23627;53.302;-6.362;2023-10-08T12:04:01;5.18;;;3.13;;
37787;SDS011;23627;53.302;-6.362;2023-10-08T12:06:27;5.65;;;2.97;;
37787;SDS011;23627;53.302;-6.362;2023-10-08T12:08:56;4.35;;;2.63;;
37787;SDS011;23627;53.302;-6.362;2023-10-08T12:11:24;5.95;;;2.65;;
37787;SDS011;23627;53.302;-6.362;2023-10-08T12:13:59;5.13;;;2.85;;
37787;SDS011;23627;53.302;-6.362;2023-10-08T12:16:25;4.75;;;2.83;;
37787;SDS011;23627;53.302;-6.362;2023-10-08T12:18:55;5.00;;;2.92;;
37787;SDS011;23627;53.302;-6.362;2023-10-08T12:21:27;5.03;;;2.50;;
37787;SDS011;23627;53.302;-6.362;2023-10-08T12:23:55;4.63;;;2.63;;
37787;SDS011;23627;53.302;-6.362;2023-10-08T12:26:22;5.68;;;2.90;;
37787;SDS011;23627;53.302;-6.362;2023-10-08T12:28:48;6.85;;;3.22;;
37787;SDS011;23627;53.302;-6.362;2023-10-08T12:31:15;5.93;;;2.90;;
37787;SDS011;23627;53.302;-6.362;2023-10-08T12:33:41;4.45;;;3.00;;
37787;SDS011;23627;53.302;-6.362;2023-10-08T12:36:11;5.80;;;2.75;;
37787;SDS011;23627;53.302;-6.362;2023-10-08T12:38:40;5.43;;;2.63;;
37787;SDS011;23627;53.302;-6.362;2023-10-08T12:41:07;4.78;;;2.50;;
37787;SDS011;23627;53.302;-6.362;2023-10-08T12:43:40;6.63;;;3.10;;
37787;SDS011;23627;53.302;-6.362;2023-10-08T12:46:17;4.35;;;2.85;;
37787;SDS011;23627;53.302;-6.362;2023-10-08T12:48:49;4.38;;;2.95;;
37787;SDS011;23627;53.302;-6.362;2023-10-08T12:51:22;4.75;;;2.58;;
37787;SDS011;23627;53.302;-6.362;2023-10-08T12:53:54;5.45;;;3.03;;
37787;SDS011;23627;53.302;-6.362;2023-10-08T12:56:32;4.95;;;3.00;;
37787;SDS011;23627;53.302;-6.362;2023-10-08T12:59:03;4.35;;;2.75;;
37787;SDS011;23627;53.302;-6.362;2023-10-08T13:01:32;4.30;;;2.78;;
37787;SDS011;23627;53.302;-6.362;2023-10-08T13:04:01;4.45;;;2.90;;
37787;SDS011;23627;53.302;-6.362;2023-10-08T13:06:37;5.95;;;3.00;;
37787;SDS011;23627;53.302;-6.362;2023-10-08T13:09:03;6.28;;;2.97;;
37787;SDS011;23627;53.302;-6.362;2023-10-08T13:11:37;5.00;;;2.90;;
37787;SDS011;23627;53.302;-6.362;2023-10-08T13:14:04;4.57;;;2.70;;
37787;SDS011;23627;53.302;-6.362;2023-10-08T13:16:30;4.00;;;2.80;;
37787;SDS011;23627;53.302;-6.362;2023-10-08T13:18:57;5.72;;;3.38;;
37787;SDS011;23627;53.302;-6.362;2023-10-08T13:21:24;5.65;;;2.97;;
37787;SDS011;23627;53.302;-6.362;2023-10-08T13:23:51;6.05;;;3.00;;
37787;SDS011;23627;53.302;-6.362;2023-10-08T13:26:17;4.75;;;3.00;;
37787;SDS011;23627;53.302;-6.362;2023-10-08T13:28:43;4.60;;;2.85;;
37787;SDS011;23627;53.302;-6.362;2023-10-08T13:31:10;4.97;;;2.70;;
37787;SDS011;23627;53.302;-6.362;2023-10-08T13:33:40;5.13;;;3.22;;
37787;SDS011;23627;53.302;-6.362;2023-10-08T13:36:12;5.95;;;3.20;;
37787;SDS011;23627;53.302;-6.362;2023-10-08T13:38:39;5.07;;;2.80;;
37787;SDS011;23627;53.302;-6.362;2023-10-08T13:41:08;5.22;;;3.17;;
37787;SDS011;23627;53.302;-6.362;2023-10-08T13:46:16;5.32;;;3.13;;
37787;SDS011;23627;53.302;-6.362;2023-10-08T13:48:44;5.57;;;3.10;;
37787;SDS011;23627;53.302;-6.362;2023-10-08T13:51:13;4.35;;;3.13;;
37787;SDS011;23627;53.302;-6.362;2023-10-08T13:53:47;5.50;;;3.28;;
37787;SDS011;23627;53.302;-6.362;2023-10-08T13:56:17;5.13;;;3.25;;
37787;SDS011;23627;53.302;-6.362;2023-10-08T13:58:46;4.72;;;3.40;;
37787;SDS011;23627;53.302;-6.362;2023-10-08T14:01:14;4.30;;;3.22;;
37787;SDS011;23627;53.302;-6.362;2023-10-08T14:06:13;3.78;;;2.80;;
37787;SDS011;23627;53.302;-6.362;2023-10-08T14:08:46;6.68;;;3.50;;
37787;SDS011;23627;53.302;-6.362;2023-10-08T14:11:20;6.07;;;3.50;;
37787;SDS011;23627;53.302;-6.362;2023-10-08T14:13:54;5.95;;;3.50;;
37787;SDS011;23627;53.302;-6.362;2023-10-08T14:16:27;6.70;;;3.20;;
37787;SDS011;23627;53.302;-6.362;2023-10-08T14:18:57;6.30;;;3.20;;
37787;SDS011;23627;53.302;-6.362;2023-10-08T14:21:25;4.30;;;3.40;;
37787;SDS011;23627;53.302;-6.362;2023-10-08T14:23:58;4.78;;;3.13;;
37787;SDS011;23627;53.302;-6.362;2023-10-08T14:26:28;4.82;;;3.30;;
37787;SDS011;23627;53.302;-6.362;2023-10-08T14:29:01;4.82;;;3.13;;
37787;SDS011;23627;53.302;-6.362;2023-10-08T14:31:33;4.60;;;3.20;;
37787;SDS011;23627;53.302;-6.362;2023-10-08T14:34:03;6.13;;;3.58;;
37787;SDS011;23627;53.302;-6.362;2023-10-08T14:36:31;5.25;;;3.45;;
37787;SDS011;23627;53.302;-6.362;2023-10-08T14:39:16;4.70;;;3.55;;
37787;SDS011;23627;53.302;-6.362;2023-10-08T14:42:14;4.72;;;3.22;;
37787;SDS011;23627;53.302;-6.362;2023-10-08T14:44:59;4.72;;;3.47;;
37787;SDS011;23627;53.302;-6.362;2023-10-08T14:47:25;4.32;;;3.08;;
37787;SDS011;23627;53.302;-6.362;2023-10-08T14:49:51;4.32;;;3.20;;
37787;SDS011;23627;53.302;-6.362;2023-10-08T14:52:17;5.10;;;3.63;;
37787;SDS011;23627;53.302;-6.362;2023-10-08T14:54:43;6.53;;;4.43;;
37787;SDS011;23627;53.302;-6.362;2023-10-08T14:57:10;6.82;;;3.55;;
37787;SDS011;23627;53.302;-6.362;2023-10-08T14:59:40;6.78;;;3.40;;
37787;SDS011;23627;53.302;-6.362;2023-10-08T15:02:07;5.80;;;3.92;;
37787;SDS011;23627;53.302;-6.362;2023-10-08T15:04:35;6.22;;;3.60;;
37787;SDS011;23627;53.302;-6.362;2023-10-08T15:07:04;5.03;;;3.65;;
37787;SDS011;23627;53.302;-6.362;2023-10-08T15:09:34;4.13;;;3.35;;
37787;SDS011;23627;53.302;-6.362;2023-10-08T15:12:00;6.00;;;3.45;;
37787;SDS011;23627;53.302;-6.362;2023-10-08T15:14:26;7.28;;;3.85;;
37787;SDS011;23627;53.302;-6.362;2023-10-08T15:16:52;4.95;;;3.75;;
37787;SDS011;23627;53.302;-6.362;2023-10-08T15:19:19;6.03;;;4.20;;
37787;SDS011;23627;53.302;-6.362;2023-10-08T15:21:45;6.78;;;5.50;;
37787;SDS011;23627;53.302;-6.362;2023-10-08T15:24:15;5.45;;;3.92;;
37787;SDS011;23627;53.302;-6.362;2023-10-08T15:26:42;7.43;;;3.95;;
37787;SDS011;23627;53.302;-6.362;2023-10-08T15:29:08;6.38;;;4.05;;
37787;SDS011;23627;53.302;-6.362;2023-10-08T15:31:34;4.93;;;4.07;;
37787;SDS011;23627;53.302;-6.362;2023-10-08T15:34:01;6.20;;;4.55;;
37787;SDS011;23627;53.302;-6.362;2023-10-08T15:36:30;6.20;;;4.10;;
37787;SDS011;23627;53.302;-6.362;2023-10-08T15:38:57;6.70;;;3.92;;
37787;SDS011;23627;53.302;-6.362;2023-10-08T15:41:23;6.18;;;4.10;;
37787;SDS011;23627;53.302;-6.362;2023-10-08T15:43:52;6.13;;;4.10;;
37787;SDS011;23627;53.302;-6.362;2023-10-08T15:46:24;5.78;;;4.10;;
37787;SDS011;23627;53.302;-6.362;2023-10-08T15:48:51;5.57;;;4.05;;
37787;SDS011;23627;53.302;-6.362;2023-10-08T15:51:18;6.30;;;3.70;;
37787;SDS011;23627;53.302;-6.362;2023-10-08T15:53:44;5.38;;;4.25;;
37787;SDS011;23627;53.302;-6.362;2023-10-08T15:56:10;6.32;;;4.10;;
37787;SDS011;23627;53.302;-6.362;2023-10-08T15:58:36;7.03;;;4.10;;
37787;SDS011;23627;53.302;-6.362;2023-10-08T16:01:02;5.63;;;3.70;;
37787;SDS011;23627;53.302;-6.362;2023-10-08T16:03:28;4.55;;;3.92;;
37787;SDS011;23627;53.302;-6.362;2023-10-08T16:05:53;5.07;;;3.72;;
37787;SDS011;23627;53.302;-6.362;2023-10-08T16:08:20;5.53;;;3.80;;
37787;SDS011;23627;53.302;-6.362;2023-10-08T16:10:46;5.50;;;3.85;;
37787;SDS011;23627;53.302;-6.362;2023-10-08T16:13:15;4.57;;;3.90;;
37787;SDS011;23627;53.302;-6.362;2023-10-08T16:15:40;5.85;;;3.83;;
37787;SDS011;23627;53.302;-6.362;2023-10-08T16:18:07;4.72;;;4.00;;